createdAt,value
2022-11-20T00:01:30.049Z,100529.31
2022-11-20T00:03:58.993Z,100538.81
2022-11-20T00:06:28.160Z,100543.06
2022-11-20T00:08:58.320Z,100547.00
2022-11-20T00:11:27.652Z,100546.31
2022-11-20T00:13:58.183Z,100548.16
2022-11-20T00:16:27.659Z,100548.69
2022-11-20T00:18:55.945Z,100547.31
2022-11-20T00:21:26.942Z,100559.28
2022-11-20T00:23:56.234Z,100567.16
2022-11-20T00:26:25.415Z,100560.53
2022-11-20T00:29:00.746Z,100566.16
2022-11-20T00:31:29.007Z,100573.75
2022-11-20T00:33:56.432Z,100574.47
2022-11-20T00:36:27.147Z,100574.78
2022-11-20T00:38:56.480Z,100581.13
2022-11-20T00:41:24.564Z,100584.19
2022-11-20T00:43:54.019Z,100586.44
2022-11-20T00:46:23.890Z,100589.00
2022-11-20T00:48:52.245Z,100584.22
2022-11-20T00:51:25.017Z,100584.22
2022-11-20T00:53:52.874Z,100585.84
2022-11-20T00:56:20.381Z,100582.38
2022-11-20T00:58:49.718Z,100590.22
2022-11-20T01:01:25.229Z,100583.75
2022-11-20T01:03:57.079Z,100594.75
2022-11-20T01:06:33.192Z,100585.28
2022-11-20T01:09:06.081Z,100596.88
2022-11-20T01:11:36.722Z,100597.09
2022-11-20T01:14:06.833Z,100590.63
2022-11-20T01:16:40.580Z,100588.53
2022-11-20T01:19:18.012Z,100586.53
2022-11-20T01:21:47.284Z,100589.91
2022-11-20T01:24:16.387Z,100589.59
2022-11-20T01:26:45.259Z,100594.75
2022-11-20T01:29:19.900Z,100593.16
2022-11-20T01:31:47.686Z,100604.53
2022-11-20T01:34:18.747Z,100602.19
2022-11-20T01:36:46.562Z,100603.72
2022-11-20T01:39:20.010Z,100602.63
2022-11-20T01:42:10.506Z,100598.91
2022-11-20T01:45:01.457Z,100606.59
2022-11-20T01:47:43.992Z,100610.03
2022-11-20T01:50:17.527Z,100611.19
2022-11-20T01:52:48.655Z,100607.84
2022-11-20T01:55:22.572Z,100606.34
2022-11-20T01:57:50.770Z,100601.75
2022-11-20T02:00:20.666Z,100596.38
2022-11-20T02:02:56.858Z,100607.84
2022-11-20T02:05:44.467Z,100610.88
2022-11-20T02:08:12.816Z,100608.16
2022-11-20T02:10:40.434Z,100608.34
2022-11-20T02:13:26.169Z,100614.75
2022-11-20T02:15:54.652Z,100618.59
2022-11-20T02:18:23.306Z,100623.16
2022-11-20T02:21:08.266Z,100619.78
2022-11-20T02:24:06.034Z,100617.63
2022-11-20T02:26:44.097Z,100620.66
2022-11-20T02:29:11.434Z,100623.69
2022-11-20T02:31:41.804Z,100621.00
2022-11-20T02:34:09.658Z,100618.31
2022-11-20T02:36:39.563Z,100618.31
2022-11-20T02:39:07.811Z,100614.75
2022-11-20T02:41:38.790Z,100618.63
2022-11-20T02:44:06.808Z,100619.75
2022-11-20T02:46:34.591Z,100616.56
2022-11-20T02:49:03.941Z,100616.91
2022-11-20T02:51:32.150Z,100607.81
2022-11-20T02:53:59.508Z,100615.44
2022-11-20T02:56:26.983Z,100611.38
2022-11-20T02:58:54.420Z,100606.50
2022-11-20T03:01:22.450Z,100614.94
2022-11-20T03:03:49.867Z,100610.03
2022-11-20T03:06:17.853Z,100612.41
2022-11-20T03:08:45.432Z,100613.06
2022-11-20T03:11:12.954Z,100619.13
2022-11-20T03:13:40.827Z,100623.53
2022-11-20T03:16:10.758Z,100619.28
2022-11-20T03:18:38.495Z,100617.63
2022-11-20T03:21:06.287Z,100623.31
2022-11-20T03:23:34.187Z,100615.91
2022-11-20T03:26:17.271Z,100620.91
2022-11-20T03:28:50.030Z,100621.84
2022-11-20T03:31:20.190Z,100626.81
2022-11-20T03:33:47.668Z,100627.97
2022-11-20T03:36:17.686Z,100636.22
2022-11-20T03:38:45.459Z,100625.00
2022-11-20T03:41:28.110Z,100621.06
2022-11-20T03:44:02.012Z,100624.06
2022-11-20T03:46:30.695Z,100621.59
2022-11-20T03:48:58.772Z,100623.94
2022-11-20T03:51:28.662Z,100630.00
2022-11-20T03:53:58.740Z,100628.88
2022-11-20T03:56:31.723Z,100631.22
2022-11-20T03:58:59.802Z,100640.41
2022-11-20T04:01:30.455Z,100636.25
2022-11-20T04:03:58.165Z,100642.50
2022-11-20T04:06:28.357Z,100638.78
2022-11-20T04:08:57.448Z,100647.88
2022-11-20T04:11:27.089Z,100640.63
2022-11-20T04:14:00.381Z,100642.75
2022-11-20T04:16:31.142Z,100652.28
2022-11-20T04:19:03.458Z,100648.53
2022-11-20T04:21:30.840Z,100644.56
2022-11-20T04:23:58.888Z,100650.66
2022-11-20T04:26:28.939Z,100649.63
2022-11-20T04:28:56.989Z,100652.09
2022-11-20T04:31:28.454Z,100654.34
2022-11-20T04:33:55.987Z,100660.31
2022-11-20T04:36:25.784Z,100650.94
2022-11-20T04:38:57.598Z,100653.00
2022-11-20T04:41:31.173Z,100652.22
2022-11-20T04:44:03.312Z,100652.53
2022-11-20T04:46:51.275Z,100659.94
2022-11-20T04:49:18.663Z,100661.41
2022-11-20T04:51:46.107Z,100675.56
2022-11-20T04:54:14.027Z,100673.78
2022-11-20T04:56:41.262Z,100666.25
2022-11-20T04:59:08.530Z,100665.41
2022-11-20T05:01:36.166Z,100667.94
2022-11-20T05:04:03.973Z,100677.25
2022-11-20T05:06:31.247Z,100666.47
2022-11-20T05:08:58.941Z,100681.09
2022-11-20T05:11:26.688Z,100677.31
2022-11-20T05:13:54.252Z,100678.53
2022-11-20T05:16:24.437Z,100669.66
2022-11-20T05:18:53.432Z,100680.41
2022-11-20T05:21:21.496Z,100683.00
2022-11-20T05:23:49.185Z,100684.81
2022-11-20T05:26:19.089Z,100689.44
2022-11-20T05:28:47.899Z,100687.47
2022-11-20T05:31:26.735Z,100683.50
2022-11-20T05:33:57.828Z,100692.41
2022-11-20T05:36:26.043Z,100692.66
2022-11-20T05:38:58.043Z,100692.19
2022-11-20T05:41:28.730Z,100701.91
2022-11-20T05:43:57.398Z,100706.34
2022-11-20T05:46:28.787Z,100710.97
2022-11-20T05:48:58.093Z,100710.09
2022-11-20T05:51:25.915Z,100712.72
2022-11-20T05:53:53.773Z,100717.84
2022-11-20T05:56:22.639Z,100723.66
2022-11-20T05:58:50.702Z,100721.13
2022-11-20T06:01:21.548Z,100722.25
2022-11-20T06:03:51.351Z,100730.59
2022-11-20T06:06:19.845Z,100729.94
2022-11-20T06:08:47.650Z,100734.13
2022-11-20T06:11:16.067Z,100739.84
2022-11-20T06:13:44.663Z,100741.84
2022-11-20T06:16:14.063Z,100740.94
2022-11-20T06:18:41.757Z,100750.94
2022-11-20T06:21:12.504Z,100751.00
2022-11-20T06:23:40.203Z,100756.16
2022-11-20T06:26:10.551Z,100766.69
2022-11-20T06:28:37.907Z,100768.63
2022-11-20T06:31:07.593Z,100777.03
2022-11-20T06:33:35.156Z,100768.00
2022-11-20T06:36:08.899Z,100770.03
2022-11-20T06:38:38.374Z,100772.06
2022-11-20T06:41:07.759Z,100775.50
2022-11-20T06:43:35.121Z,100774.69
2022-11-20T06:46:03.149Z,100781.59
2022-11-20T06:48:30.809Z,100786.34
2022-11-20T06:50:58.334Z,100782.47
2022-11-20T06:53:25.688Z,100792.25
2022-11-20T06:55:53.595Z,100790.25
2022-11-20T06:58:21.370Z,100794.31
2022-11-20T07:00:49.614Z,100788.88
2022-11-20T07:03:17.230Z,100804.25
2022-11-20T07:05:46.040Z,100795.69
2022-11-20T07:08:13.484Z,100798.94
2022-11-20T07:10:40.935Z,100805.72
2022-11-20T07:13:10.603Z,100798.59
2022-11-20T07:15:37.831Z,100807.59
2022-11-20T07:18:05.595Z,100808.97
2022-11-20T07:20:33.202Z,100819.94
2022-11-20T07:23:01.231Z,100822.38
2022-11-20T07:25:29.107Z,100828.19
2022-11-20T07:28:01.199Z,100832.75
2022-11-20T07:30:29.444Z,100829.72
2022-11-20T07:32:57.932Z,100832.19
2022-11-20T07:35:26.003Z,100842.91
2022-11-20T07:37:53.742Z,100844.09
2022-11-20T07:40:21.281Z,100842.19
2022-11-20T07:42:53.342Z,100843.66
2022-11-20T07:45:22.482Z,100836.66
2022-11-20T07:47:50.819Z,100845.09
2022-11-20T07:50:19.265Z,100845.28
2022-11-20T07:52:46.668Z,100844.03
2022-11-20T07:55:14.134Z,100841.16
2022-11-20T07:57:44.116Z,100842.22
2022-11-20T08:00:12.715Z,100853.09
2022-11-20T08:02:41.851Z,100852.47
2022-11-20T08:05:10.875Z,100856.09
2022-11-20T08:07:40.144Z,100860.47
2022-11-20T08:10:09.397Z,100868.72
2022-11-20T08:12:56.947Z,100872.38
2022-11-20T08:15:24.655Z,100868.13
2022-11-20T08:18:15.310Z,100869.00
2022-11-20T08:20:39.710Z,100873.44
2022-11-20T08:23:09.060Z,100877.03
2022-11-20T08:25:38.563Z,100883.19
2022-11-20T08:28:18.745Z,100883.28
2022-11-20T08:30:47.564Z,100880.00
2022-11-20T08:33:15.414Z,100883.91
2022-11-20T08:35:43.867Z,100889.78
2022-11-20T08:38:11.628Z,100889.94
2022-11-20T08:40:38.955Z,100892.09
2022-11-20T08:43:06.834Z,100901.97
2022-11-20T08:45:35.389Z,100900.09
2022-11-20T08:48:04.627Z,100899.78
2022-11-20T08:50:33.977Z,100896.59
2022-11-20T08:53:05.964Z,100897.06
2022-11-20T08:55:33.222Z,100902.81
2022-11-20T08:58:05.500Z,100909.50
2022-11-20T09:00:33.653Z,100903.41
2022-11-20T09:03:02.102Z,100903.41
2022-11-20T09:05:30.206Z,100906.34
2022-11-20T09:07:59.257Z,100905.59
2022-11-20T09:10:27.352Z,100901.00
2022-11-20T09:12:58.793Z,100908.31
2022-11-20T09:15:26.844Z,100905.59
2022-11-20T09:17:58.127Z,100899.03
2022-11-20T09:20:27.443Z,100901.59
2022-11-20T09:22:55.995Z,100894.72
2022-11-20T09:25:23.469Z,100907.88
2022-11-20T09:27:58.692Z,100905.19
2022-11-20T09:30:26.895Z,100904.50
2022-11-20T09:32:54.394Z,100906.72
2022-11-20T09:35:21.965Z,100900.28
2022-11-20T09:37:49.881Z,100900.94
2022-11-20T09:40:21.759Z,100907.06
2022-11-20T09:43:04.306Z,100905.69
2022-11-20T09:45:57.009Z,100907.03
2022-11-20T09:48:42.944Z,100905.13
2022-11-20T09:51:29.576Z,100898.00
2022-11-20T09:54:05.647Z,100897.81
2022-11-20T09:56:35.382Z,100885.28
2022-11-20T09:59:07.500Z,100893.44
2022-11-20T10:01:37.675Z,100888.06
2022-11-20T10:04:11.355Z,100873.56
2022-11-20T10:06:41.071Z,100876.03
2022-11-20T10:09:11.171Z,100871.84
2022-11-20T10:12:00.080Z,100875.84
2022-11-20T10:14:33.398Z,100874.31
2022-11-20T10:17:04.316Z,100872.81
2022-11-20T10:19:35.018Z,100866.06
2022-11-20T10:22:32.143Z,100855.72
2022-11-20T10:25:30.703Z,100863.59
2022-11-20T10:28:13.571Z,100866.75
2022-11-20T10:30:45.091Z,100857.75
2022-11-20T10:33:24.714Z,100863.75
2022-11-20T10:35:55.988Z,100857.00
2022-11-20T10:38:31.087Z,100853.09
2022-11-20T10:41:21.541Z,100846.00
2022-11-20T10:43:53.450Z,100855.13
2022-11-20T10:46:25.559Z,100846.16
2022-11-20T10:48:52.775Z,100841.38
2022-11-20T10:51:42.746Z,100837.75
2022-11-20T10:54:48.630Z,100830.59
2022-11-20T10:57:48.362Z,100835.13
2022-11-20T11:00:18.139Z,100836.22
2022-11-20T11:02:49.565Z,100838.22
2022-11-20T11:05:45.902Z,100834.41
2022-11-20T11:08:19.121Z,100833.38
2022-11-20T11:10:55.784Z,100827.81
2022-11-20T11:13:27.761Z,100828.41
2022-11-20T11:15:56.151Z,100826.22
2022-11-20T11:18:29.429Z,100829.88
2022-11-20T11:20:58.419Z,100824.53
2022-11-20T11:23:34.236Z,100823.00
2022-11-20T11:26:04.656Z,100818.25
2022-11-20T11:28:33.031Z,100816.53
2022-11-20T11:31:00.856Z,100813.16
2022-11-20T11:33:31.781Z,100813.66
2022-11-20T11:36:20.011Z,100815.00
2022-11-20T11:38:53.027Z,100807.53
2022-11-20T11:41:24.906Z,100811.69
2022-11-20T11:44:13.061Z,100795.41
2022-11-20T11:46:50.913Z,100802.38
2022-11-20T11:49:20.428Z,100795.31
2022-11-20T11:52:04.527Z,100794.91
2022-11-20T11:54:43.282Z,100797.72
2022-11-20T11:57:52.992Z,100789.09
2022-11-20T12:00:22.185Z,100788.13
2022-11-20T12:03:19.527Z,100784.81
2022-11-20T12:05:51.869Z,100785.44
2022-11-20T12:08:38.090Z,100790.75
2022-11-20T12:11:07.567Z,100791.25
2022-11-20T12:13:34.872Z,100769.59
2022-11-20T12:16:03.981Z,100768.47
2022-11-20T12:18:31.710Z,100769.88
2022-11-20T12:21:21.942Z,100773.94
2022-11-20T12:24:01.699Z,100766.47
2022-11-20T12:27:00.572Z,100773.34
2022-11-20T12:29:56.259Z,100773.84
2022-11-20T12:32:26.458Z,100768.63
2022-11-20T12:34:59.609Z,100765.47
2022-11-20T12:37:54.019Z,100760.09
2022-11-20T12:40:27.687Z,100752.78
2022-11-20T12:43:41.162Z,100750.59
2022-11-20T12:46:24.144Z,100752.06
2022-11-20T12:48:51.818Z,100742.81
2022-11-20T12:51:46.306Z,100745.09
2022-11-20T12:54:59.488Z,100733.75
2022-11-20T12:57:44.384Z,100730.78
2022-11-20T13:00:21.859Z,100722.69
2022-11-20T13:03:15.266Z,100730.41
2022-11-20T13:05:59.887Z,100725.81
2022-11-20T13:08:40.055Z,100725.78
2022-11-20T13:11:19.902Z,100719.50
2022-11-20T13:13:59.315Z,100713.00
2022-11-20T13:16:37.367Z,100709.66
2022-11-20T13:19:06.611Z,100712.38
2022-11-20T13:21:42.926Z,100711.97
2022-11-20T13:24:28.747Z,100707.28
2022-11-20T13:27:14.685Z,100695.56
2022-11-20T13:29:45.888Z,100690.56
2022-11-20T13:32:22.067Z,100696.78
2022-11-20T13:34:58.384Z,100681.94
2022-11-20T13:37:35.851Z,100684.44
2022-11-20T13:40:09.196Z,100683.38
2022-11-20T13:42:55.116Z,100676.28
2022-11-20T13:45:33.494Z,100687.75
2022-11-20T13:48:05.733Z,100672.69
2022-11-20T13:50:42.392Z,100685.94
2022-11-20T13:53:30.352Z,100682.94
2022-11-20T13:56:11.035Z,100678.34
2022-11-20T13:59:16.747Z,100692.59
2022-11-20T14:01:47.549Z,100684.81
2022-11-20T14:04:21.327Z,100680.66
2022-11-20T14:06:51.680Z,100685.28
2022-11-20T14:09:56.178Z,100682.25
2022-11-20T14:12:29.803Z,100677.28
2022-11-20T14:14:57.256Z,100682.06
2022-11-20T14:17:30.584Z,100678.72
2022-11-20T14:20:07.741Z,100669.88
2022-11-20T14:22:35.494Z,100661.34
2022-11-20T14:25:02.911Z,100674.09
2022-11-20T14:27:33.814Z,100671.16
2022-11-20T14:30:02.346Z,100666.53
2022-11-20T14:32:32.088Z,100662.53
2022-11-20T14:35:11.472Z,100674.91
2022-11-20T14:37:42.227Z,100675.75
2022-11-20T14:40:43.258Z,100669.47
2022-11-20T14:43:28.031Z,100671.53
2022-11-20T14:46:05.030Z,100671.28
2022-11-20T14:48:42.949Z,100679.69
2022-11-20T14:51:12.131Z,100686.53
2022-11-20T14:53:39.707Z,100680.44
2022-11-20T14:56:07.454Z,100678.19
2022-11-20T14:58:35.070Z,100678.22
2022-11-20T15:01:06.821Z,100685.22
2022-11-20T15:03:37.501Z,100686.72
2022-11-20T15:06:11.310Z,100674.19
2022-11-20T15:08:38.790Z,100678.91
2022-11-20T15:11:20.655Z,100684.91
2022-11-20T15:13:47.979Z,100689.13
2022-11-20T15:16:21.675Z,100682.88
2022-11-20T15:18:49.455Z,100678.44
2022-11-20T15:21:19.168Z,100687.31
2022-11-20T15:23:46.527Z,100684.81
2022-11-20T15:26:19.885Z,100688.34
2022-11-20T15:28:51.093Z,100685.00
2022-11-20T15:31:22.415Z,100692.28
2022-11-20T15:33:50.272Z,100694.72
2022-11-20T15:36:17.790Z,100704.78
2022-11-20T15:38:45.403Z,100693.78
2022-11-20T15:41:12.853Z,100691.16
2022-11-20T15:43:40.579Z,100697.38
2022-11-20T15:46:13.981Z,100693.47
2022-11-20T15:48:47.990Z,100683.59
2022-11-20T15:51:36.564Z,100692.53
2022-11-20T15:54:12.623Z,100675.19
2022-11-20T15:56:40.554Z,100679.16
2022-11-20T15:59:08.235Z,100683.88
2022-11-20T16:01:35.690Z,100693.59
2022-11-20T16:04:03.254Z,100690.16
2022-11-20T16:06:31.053Z,100694.47
2022-11-20T16:08:58.894Z,100699.66
2022-11-20T16:11:26.533Z,100715.03
2022-11-20T16:14:12.398Z,100715.97
2022-11-20T16:16:41.711Z,100707.03
2022-11-20T16:19:13.457Z,100709.75
2022-11-20T16:21:42.471Z,100706.50
2022-11-20T16:24:13.706Z,100709.97
2022-11-20T16:26:42.204Z,100707.25
2022-11-20T16:29:10.950Z,100706.16
2022-11-20T16:31:38.518Z,100713.63
2022-11-20T16:34:12.286Z,100716.06
2022-11-20T16:36:43.072Z,100724.50
2022-11-20T16:39:10.872Z,100720.38
2022-11-20T16:41:38.851Z,100719.09
2022-11-20T16:44:11.507Z,100721.63
2022-11-20T16:46:41.015Z,100715.31
2022-11-20T16:49:13.866Z,100713.00
2022-11-20T16:51:42.799Z,100714.59
2022-11-20T16:54:10.819Z,100720.78
2022-11-20T16:56:38.142Z,100727.84
2022-11-20T16:59:07.391Z,100719.13
2022-11-20T17:01:38.618Z,100728.13
2022-11-20T17:04:07.763Z,100730.31
2022-11-20T17:06:37.727Z,100737.78
2022-11-20T17:09:05.134Z,100740.13
2022-11-20T17:11:33.546Z,100749.84
2022-11-20T17:14:04.760Z,100746.91
2022-11-20T17:16:32.487Z,100748.13
2022-11-20T17:19:03.283Z,100754.91
2022-11-20T17:21:38.045Z,100752.19
2022-11-20T17:24:09.091Z,100758.31
2022-11-20T17:26:38.967Z,100757.97
2022-11-20T17:29:10.738Z,100753.25
2022-11-20T17:31:38.627Z,100757.69
2022-11-20T17:34:07.589Z,100765.53
2022-11-20T17:36:35.147Z,100764.81
2022-11-20T17:39:03.494Z,100765.00
2022-11-20T17:41:31.235Z,100771.00
2022-11-20T17:44:00.802Z,100768.00
2022-11-20T17:46:32.758Z,100767.50
2022-11-20T17:49:01.428Z,100767.25
2022-11-20T17:51:31.476Z,100767.97
2022-11-20T17:54:01.155Z,100762.06
2022-11-20T17:56:51.510Z,100765.44
2022-11-20T17:59:19.704Z,100765.03
2022-11-20T18:01:47.989Z,100770.00
2022-11-20T18:04:16.831Z,100769.06
2022-11-20T18:06:44.810Z,100768.72
2022-11-20T18:09:12.740Z,100776.22
2022-11-20T18:11:41.930Z,100767.09
2022-11-20T18:14:31.995Z,100773.50
2022-11-20T18:17:04.398Z,100772.84
2022-11-20T18:19:40.280Z,100775.81
2022-11-20T18:22:13.786Z,100773.94
2022-11-20T18:24:43.124Z,100773.38
2022-11-20T18:27:17.169Z,100769.66
2022-11-20T18:29:46.478Z,100772.13
2022-11-20T18:32:14.767Z,100768.22
2022-11-20T18:34:42.055Z,100772.66
2022-11-20T18:37:09.819Z,100775.53
2022-11-20T18:39:37.463Z,100765.34
2022-11-20T18:42:23.546Z,100766.78
2022-11-20T18:44:54.909Z,100773.59
2022-11-20T18:47:36.158Z,100771.84
2022-11-20T18:50:06.324Z,100762.19
2022-11-20T18:52:39.807Z,100751.06
2022-11-20T18:55:08.118Z,100758.72
2022-11-20T18:57:35.799Z,100771.88
2022-11-20T19:00:09.435Z,100775.44
2022-11-20T19:02:43.061Z,100770.72
2022-11-20T19:05:13.651Z,100770.41
2022-11-20T19:07:41.533Z,100755.00
2022-11-20T19:10:09.446Z,100754.84
2022-11-20T19:12:37.209Z,100758.59
2022-11-20T19:15:05.191Z,100749.66
2022-11-20T19:17:34.024Z,100748.06
2022-11-20T19:20:01.537Z,100762.47
2022-11-20T19:22:28.964Z,100757.59
2022-11-20T19:24:56.604Z,100759.94
2022-11-20T19:27:24.167Z,100768.75
2022-11-20T19:29:51.740Z,100781.28
2022-11-20T19:32:19.776Z,100782.50
2022-11-20T19:34:47.513Z,100776.97
2022-11-20T19:37:14.866Z,100766.81
2022-11-20T19:39:42.637Z,100763.75
2022-11-20T19:42:09.975Z,100762.94
2022-11-20T19:44:37.312Z,100765.28
2022-11-20T19:47:08.986Z,100771.06
2022-11-20T19:49:41.700Z,100761.09
2022-11-20T19:52:09.951Z,100763.44
2022-11-20T19:54:37.300Z,100761.59
2022-11-20T19:57:05.017Z,100749.94
2022-11-20T19:59:32.591Z,100742.53
2022-11-20T20:02:02.032Z,100733.88
2022-11-20T20:04:29.447Z,100714.44
2022-11-20T20:06:57.696Z,100705.63
2022-11-20T20:09:26.958Z,100697.19
2022-11-20T20:11:54.664Z,100689.47
2022-11-20T20:14:22.058Z,100697.28
2022-11-20T20:16:49.419Z,100706.03
2022-11-20T20:19:16.719Z,100706.72
2022-11-20T20:21:44.334Z,100693.91
2022-11-20T20:24:12.109Z,100699.66
2022-11-20T20:26:39.988Z,100698.28
2022-11-20T20:29:07.283Z,100700.44
2022-11-20T20:31:35.563Z,100706.38
2022-11-20T20:34:05.299Z,100712.44
2022-11-20T20:36:33.002Z,100722.38
2022-11-20T20:39:02.555Z,100726.44
2022-11-20T20:41:30.333Z,100734.19
2022-11-20T20:44:16.212Z,100730.28
2022-11-20T20:46:43.749Z,100731.47
2022-11-20T20:49:11.679Z,100729.66
2022-11-20T20:51:38.927Z,100742.78
2022-11-20T20:54:06.402Z,100743.09
2022-11-20T20:56:33.793Z,100747.84
2022-11-20T20:59:01.131Z,100748.16
2022-11-20T21:01:29.338Z,100743.31
2022-11-20T21:03:57.673Z,100748.66
2022-11-20T21:06:26.192Z,100753.91
2022-11-20T21:08:54.111Z,100756.44
2022-11-20T21:11:21.482Z,100761.88
2022-11-20T21:13:49.464Z,100766.25
2022-11-20T21:16:19.254Z,100768.72
2022-11-20T21:18:47.337Z,100769.72
2022-11-20T21:21:35.547Z,100775.75
2022-11-20T21:24:04.261Z,100773.88
2022-11-20T21:26:31.615Z,100776.56
2022-11-20T21:28:59.033Z,100779.44
2022-11-20T21:31:28.690Z,100779.19
2022-11-20T21:33:56.719Z,100777.03
2022-11-20T21:36:26.987Z,100784.41
2022-11-20T21:38:55.539Z,100779.97
2022-11-20T21:41:25.492Z,100792.97
2022-11-20T21:44:29.165Z,100779.97
2022-11-20T21:46:44.685Z,100786.22
2022-11-20T21:49:13.149Z,100786.03
2022-11-20T21:51:43.156Z,100788.56
2022-11-20T21:54:11.659Z,100781.03
2022-11-20T21:56:39.287Z,100778.13
2022-11-20T21:59:06.774Z,100776.47
2022-11-20T22:01:34.718Z,100784.16
2022-11-20T22:04:03.257Z,100780.66
2022-11-20T22:06:33.739Z,100783.78
2022-11-20T22:09:02.623Z,100775.59
2022-11-20T22:11:30.832Z,100789.31
2022-11-20T22:14:17.172Z,100798.78
2022-11-20T22:16:45.424Z,100794.38
2022-11-20T22:19:16.421Z,100800.94
2022-11-20T22:21:43.770Z,100800.66
2022-11-20T22:24:17.010Z,100810.63
2022-11-20T22:26:44.410Z,100814.00
2022-11-20T22:29:18.172Z,100813.38
2022-11-20T22:31:45.618Z,100816.97
2022-11-20T22:34:14.974Z,100807.69
2022-11-20T22:36:42.547Z,100805.31
2022-11-20T22:39:10.636Z,100807.84
2022-11-20T22:41:38.575Z,100800.09
2022-11-20T22:44:07.782Z,100795.53
2022-11-20T22:46:37.534Z,100802.97
2022-11-20T22:49:08.715Z,100807.34
2022-11-20T22:51:39.471Z,100803.63
2022-11-20T22:54:07.634Z,100801.28
2022-11-20T22:56:35.093Z,100801.63
2022-11-20T22:59:03.041Z,100799.09
2022-11-20T23:01:33.103Z,100788.28
2022-11-20T23:04:06.784Z,100782.38
2022-11-20T23:06:34.415Z,100787.59
2022-11-20T23:09:05.824Z,100777.97
2022-11-20T23:11:35.074Z,100774.09
2022-11-20T23:14:05.822Z,100777.16
